createdAt,value
2018-12-14T00:01:44.174Z,11.35
2018-12-14T00:04:18.071Z,9.90
2018-12-14T00:06:52.700Z,10.17
2018-12-14T00:09:27.890Z,8.97
2018-12-14T00:12:01.738Z,14.53
2018-12-14T00:14:36.403Z,9.63
2018-12-14T00:17:10.590Z,10.60
2018-12-14T00:19:44.840Z,11.83
2018-12-14T00:22:19.286Z,13.20
2018-12-14T00:24:54.731Z,9.93
2018-12-14T00:27:30.165Z,13.63
2018-12-14T00:30:04.250Z,15.23
2018-12-14T00:32:39.900Z,13.57
2018-12-14T00:35:13.919Z,14.00
2018-12-14T00:37:48.990Z,14.07
2018-12-14T00:40:23.437Z,11.27
2018-12-14T00:42:59.803Z,13.77
2018-12-14T00:45:34.599Z,17.97
2018-12-14T00:48:08.393Z,11.97
2018-12-14T00:50:44.499Z,14.37
2018-12-14T00:53:18.404Z,12.00
2018-12-14T00:55:52.330Z,11.50
2018-12-14T00:58:26.393Z,11.97
2018-12-14T01:01:00.225Z,10.20
2018-12-14T01:03:34.459Z,13.13
2018-12-14T01:06:08.978Z,9.40
2018-12-14T01:08:43.458Z,11.33
2018-12-14T01:11:18.794Z,12.13
2018-12-14T01:13:53.486Z,21.00
2018-12-14T01:16:28.604Z,13.67
2018-12-14T01:19:07.100Z,11.10
2018-12-14T01:21:42.949Z,9.80
2018-12-14T01:24:17.397Z,12.95
2018-12-14T01:26:52.295Z,9.47
2018-12-14T01:29:29.227Z,8.73
2018-12-14T01:32:03.097Z,15.30
2018-12-14T01:34:38.323Z,13.13
2018-12-14T01:37:12.336Z,8.57
2018-12-14T01:39:46.834Z,10.03
2018-12-14T01:42:21.897Z,7.97
2018-12-14T01:44:56.167Z,11.47
2018-12-14T01:47:30.201Z,9.93
2018-12-14T01:50:04.976Z,10.33
2018-12-14T01:52:39.025Z,12.73
2018-12-14T01:55:13.754Z,13.07
2018-12-14T01:57:49.231Z,9.20
2018-12-14T02:00:24.336Z,8.30
2018-12-14T02:02:59.217Z,9.30
2018-12-14T02:05:33.448Z,9.50
2018-12-14T02:08:07.192Z,9.43
2018-12-14T02:10:41.427Z,8.83
2018-12-14T02:13:15.185Z,7.33
2018-12-14T02:15:49.814Z,11.20
2018-12-14T02:18:24.182Z,7.27
2018-12-14T02:20:58.323Z,10.63
2018-12-14T02:23:32.326Z,10.17
2018-12-14T02:26:07.407Z,7.23
2018-12-14T02:28:41.436Z,7.60
2018-12-14T02:31:16.126Z,10.70
2018-12-14T02:33:50.721Z,10.03
2018-12-14T02:36:24.766Z,8.13
2018-12-14T02:38:59.300Z,7.57
2018-12-14T02:41:32.837Z,9.47
2018-12-14T02:44:07.037Z,8.67
2018-12-14T02:46:41.243Z,12.57
2018-12-14T02:49:15.243Z,10.50
2018-12-14T02:51:49.306Z,10.40
2018-12-14T02:54:23.326Z,6.93
2018-12-14T02:56:57.024Z,6.07
2018-12-14T02:59:33.730Z,7.03
2018-12-14T03:02:08.742Z,8.17
2018-12-14T03:07:25.625Z,6.80
2018-12-14T03:09:59.610Z,7.63
2018-12-14T03:12:34.466Z,8.27
2018-12-14T03:15:08.743Z,5.50
2018-12-14T03:17:43.366Z,7.25
2018-12-14T03:20:17.223Z,4.50
2018-12-14T03:22:53.272Z,8.17
2018-12-14T03:25:28.916Z,7.53
2018-12-14T03:28:02.995Z,7.50
2018-12-14T03:30:37.399Z,5.40
2018-12-14T03:33:13.988Z,7.07
2018-12-14T03:35:49.490Z,10.73
2018-12-14T03:38:24.925Z,4.37
2018-12-14T03:41:00.415Z,5.40
2018-12-14T03:43:34.431Z,6.27
2018-12-14T03:46:08.509Z,4.73
2018-12-14T03:48:42.317Z,6.73
2018-12-14T03:51:16.354Z,6.90
2018-12-14T03:53:50.584Z,6.70
2018-12-14T03:56:24.382Z,4.77
2018-12-14T03:58:58.862Z,7.33
2018-12-14T04:01:32.736Z,4.33
2018-12-14T04:04:06.729Z,4.57
2018-12-14T04:06:40.878Z,5.17
2018-12-14T04:09:15.160Z,5.87
2018-12-14T04:11:49.395Z,7.37
2018-12-14T04:14:23.240Z,5.53
2018-12-14T04:16:57.977Z,6.50
2018-12-14T04:19:33.179Z,6.90
2018-12-14T04:22:07.894Z,7.37
2018-12-14T04:24:42.342Z,5.57
2018-12-14T04:27:17.122Z,4.90
2018-12-14T04:29:51.165Z,7.20
2018-12-14T04:32:26.072Z,7.80
2018-12-14T04:35:00.808Z,7.03
2018-12-14T04:37:34.427Z,6.43
2018-12-14T04:40:08.489Z,7.13
2018-12-14T04:42:51.945Z,6.33
2018-12-14T04:45:25.737Z,6.37
2018-12-14T04:47:59.609Z,7.83
2018-12-14T04:50:33.366Z,4.87
2018-12-14T04:53:08.060Z,4.30
2018-12-14T04:55:43.118Z,5.87
2018-12-14T04:58:17.042Z,4.33
2018-12-14T05:00:52.696Z,4.73
2018-12-14T05:03:26.479Z,4.23
2018-12-14T05:06:01.095Z,4.17
2018-12-14T05:08:35.442Z,5.90
2018-12-14T05:11:09.282Z,4.80
2018-12-14T05:13:43.025Z,4.27
2018-12-14T05:16:17.413Z,5.03
2018-12-14T05:18:52.371Z,4.50
2018-12-14T05:21:26.849Z,3.75
2018-12-14T05:24:00.675Z,5.23
2018-12-14T05:26:34.545Z,4.30
2018-12-14T05:29:08.552Z,4.73
2018-12-14T05:31:42.559Z,4.12
2018-12-14T05:34:16.368Z,4.47
2018-12-14T05:36:51.055Z,4.93
2018-12-14T05:39:25.001Z,4.97
2018-12-14T05:42:02.176Z,4.57
2018-12-14T05:44:36.142Z,4.10
2018-12-14T05:47:10.223Z,3.47
2018-12-14T05:49:44.058Z,4.70
2018-12-14T05:52:20.466Z,3.70
2018-12-14T05:54:54.279Z,5.57
2018-12-14T05:57:28.595Z,4.25
2018-12-14T06:00:03.691Z,3.80
2018-12-14T06:02:37.779Z,5.00
2018-12-14T06:05:12.823Z,5.80
2018-12-14T06:07:46.980Z,4.50
2018-12-14T06:10:21.085Z,5.87
2018-12-14T06:12:55.219Z,2.73
2018-12-14T06:15:29.278Z,4.37
2018-12-14T06:18:04.255Z,3.30
2018-12-14T06:20:38.710Z,4.85
2018-12-14T06:23:12.930Z,4.25
2018-12-14T06:25:46.743Z,4.80
2018-12-14T06:28:20.469Z,5.47
2018-12-14T06:30:55.008Z,5.92
2018-12-14T06:33:28.468Z,3.87
2018-12-14T06:36:01.969Z,3.12
2018-12-14T06:38:36.791Z,2.77
2018-12-14T06:41:10.430Z,4.60
2018-12-14T06:43:44.066Z,4.75
2018-12-14T06:46:18.958Z,4.47
2018-12-14T06:48:52.441Z,4.00
2018-12-14T06:51:27.583Z,4.53
2018-12-14T06:54:02.279Z,5.50
2018-12-14T06:56:36.427Z,4.72
2018-12-14T06:59:10.623Z,4.83
2018-12-14T07:01:43.781Z,5.47
2018-12-14T07:04:17.706Z,6.93
2018-12-14T07:06:51.838Z,5.97
2018-12-14T07:09:25.570Z,6.27
2018-12-14T07:11:59.656Z,4.67
2018-12-14T07:14:33.923Z,5.33
2018-12-14T07:17:08.543Z,4.47
2018-12-14T07:19:42.376Z,5.67
2018-12-14T07:22:18.220Z,8.10
2018-12-14T07:24:51.898Z,7.27
2018-12-14T07:27:28.094Z,4.47
2018-12-14T07:30:02.087Z,5.67
2018-12-14T07:32:38.202Z,5.20
2018-12-14T07:35:12.269Z,4.27
2018-12-14T07:37:46.155Z,4.63
2018-12-14T07:40:22.814Z,3.83
2018-12-14T07:42:56.607Z,4.33
2018-12-14T07:45:30.252Z,4.47
2018-12-14T07:48:05.960Z,4.08
2018-12-14T07:50:42.981Z,4.60
2018-12-14T07:53:18.962Z,3.80
2018-12-14T07:55:55.440Z,3.35
2018-12-14T07:58:29.234Z,4.28
2018-12-14T08:01:04.127Z,4.70
2018-12-14T08:03:39.619Z,6.80
2018-12-14T08:06:14.211Z,3.25
2018-12-14T08:08:47.883Z,3.60
2018-12-14T08:11:21.993Z,2.52
2018-12-14T08:13:56.311Z,2.52
2018-12-14T08:16:30.087Z,2.10
2018-12-14T08:19:03.649Z,3.52
2018-12-14T08:21:37.476Z,2.75
2018-12-14T08:24:12.328Z,2.60
2018-12-14T08:26:47.362Z,2.17
2018-12-14T08:29:20.905Z,2.80
2018-12-14T08:31:55.121Z,2.40
2018-12-14T08:34:30.322Z,3.62
2018-12-14T08:37:09.194Z,2.00
2018-12-14T08:39:43.466Z,2.22
2018-12-14T08:42:18.989Z,3.05
2018-12-14T08:44:53.250Z,2.47
2018-12-14T08:47:27.502Z,2.83
2018-12-14T08:50:01.539Z,1.90
2018-12-14T08:52:36.569Z,2.73
2018-12-14T08:55:11.714Z,2.72
2018-12-14T08:57:45.365Z,1.72
2018-12-14T09:00:19.551Z,3.47
2018-12-14T09:02:53.372Z,3.72
2018-12-14T09:05:27.605Z,5.97
2018-12-14T09:08:02.282Z,3.42
2018-12-14T09:10:39.034Z,4.50
2018-12-14T09:13:13.112Z,3.10
2018-12-14T09:15:49.167Z,5.03
2018-12-14T09:18:23.446Z,5.40
2018-12-14T09:21:01.813Z,4.27
2018-12-14T09:23:36.400Z,3.90
2018-12-14T09:26:10.109Z,4.37
2018-12-14T09:28:45.524Z,4.87
2018-12-14T09:31:20.121Z,6.27
2018-12-14T09:33:54.796Z,5.10
2018-12-14T09:36:29.031Z,4.67
2018-12-14T09:39:03.013Z,4.85
2018-12-14T09:41:37.169Z,4.93
2018-12-14T09:44:13.378Z,4.80
2018-12-14T09:46:47.402Z,6.07
2018-12-14T09:49:54.713Z,4.60
2018-12-14T09:52:28.795Z,4.42
2018-12-14T09:55:03.016Z,7.87
2018-12-14T09:57:37.694Z,4.80
2018-12-14T10:00:11.735Z,4.17
2018-12-14T10:02:46.744Z,4.47
2018-12-14T10:05:20.553Z,8.10
2018-12-14T10:07:58.436Z,4.40
2018-12-14T10:10:32.683Z,4.92
2018-12-14T10:13:07.401Z,7.07
2018-12-14T10:15:41.552Z,6.97
2018-12-14T10:18:18.527Z,4.40
2018-12-14T10:20:53.191Z,4.43
2018-12-14T10:23:28.992Z,5.00
2018-12-14T10:26:02.806Z,5.73
2018-12-14T10:28:38.136Z,6.23
2018-12-14T10:31:12.821Z,4.90
2018-12-14T10:33:46.548Z,3.80
2018-12-14T10:36:20.355Z,5.00
2018-12-14T10:38:53.952Z,4.10
2018-12-14T10:41:28.428Z,4.37
2018-12-14T10:44:07.471Z,6.23
2018-12-14T10:46:39.794Z,4.57
2018-12-14T10:49:13.651Z,4.20
2018-12-14T10:52:07.382Z,5.03
2018-12-14T10:54:42.050Z,4.27
2018-12-14T10:57:16.257Z,4.43
2018-12-14T10:59:52.376Z,9.90
2018-12-14T11:02:26.559Z,5.67
2018-12-14T11:05:00.168Z,5.23
2018-12-14T11:07:34.461Z,4.87
2018-12-14T11:10:08.933Z,6.83
2018-12-14T11:12:43.947Z,4.30
2018-12-14T11:15:21.602Z,5.43
2018-12-14T11:17:56.085Z,4.40
2018-12-14T11:20:31.729Z,5.00
2018-12-14T11:23:06.307Z,6.43
2018-12-14T11:25:40.630Z,5.50
2018-12-14T11:28:15.188Z,5.83
2018-12-14T11:30:48.734Z,5.03
2018-12-14T11:33:22.943Z,8.17
2018-12-14T11:35:56.573Z,5.10
2018-12-14T11:38:30.737Z,5.13
2018-12-14T11:41:04.566Z,8.20
2018-12-14T11:43:38.618Z,5.23
2018-12-14T11:46:14.173Z,6.80
2018-12-14T11:48:50.001Z,7.27
2018-12-14T11:51:26.918Z,6.80
2018-12-14T11:54:02.981Z,6.00
2018-12-14T11:56:36.840Z,8.50
2018-12-14T11:59:11.846Z,6.33
2018-12-14T12:01:45.772Z,5.90
2018-12-14T12:04:19.395Z,5.90
2018-12-14T12:06:52.962Z,6.20
2018-12-14T12:09:27.517Z,6.90
2018-12-14T12:12:01.706Z,8.40
2018-12-14T12:14:35.950Z,8.67
2018-12-14T12:17:11.034Z,8.63
2018-12-14T12:19:46.015Z,7.90
2018-12-14T12:22:21.700Z,9.47
2018-12-14T12:24:55.354Z,7.23
2018-12-14T12:27:29.202Z,9.00
2018-12-14T12:30:03.485Z,7.60
2018-12-14T12:32:37.286Z,8.77
2018-12-14T12:35:15.080Z,8.93
2018-12-14T12:37:49.279Z,8.90
2018-12-14T12:40:23.660Z,9.00
2018-12-14T12:42:58.186Z,8.90
2018-12-14T12:45:31.889Z,8.57
2018-12-14T12:48:06.169Z,10.07
2018-12-14T12:50:41.708Z,9.60
2018-12-14T12:53:18.405Z,10.23
2018-12-14T12:55:53.416Z,9.50
2018-12-14T12:58:27.868Z,8.97
2018-12-14T13:01:05.165Z,10.70
2018-12-14T13:03:38.763Z,11.17
2018-12-14T13:06:12.750Z,10.43
2018-12-14T13:08:46.770Z,8.93
2018-12-14T13:11:20.205Z,10.83
2018-12-14T13:13:54.934Z,10.87
2018-12-14T13:16:29.142Z,9.23
2018-12-14T13:19:03.000Z,11.47
2018-12-14T13:21:37.406Z,10.55
2018-12-14T13:24:11.613Z,12.90
2018-12-14T13:26:46.055Z,11.83
2018-12-14T13:29:20.613Z,11.70
2018-12-14T13:31:54.191Z,14.63
2018-12-14T13:34:28.348Z,12.77
2018-12-14T13:37:02.221Z,11.10
2018-12-14T13:39:36.567Z,10.63
2018-12-14T13:42:10.666Z,13.00
2018-12-14T13:44:46.643Z,14.07
2018-12-14T13:47:21.244Z,11.47
2018-12-14T13:49:55.558Z,14.30
2018-12-14T13:52:31.102Z,15.30
2018-12-14T13:55:12.550Z,16.10
2018-12-14T13:57:46.986Z,13.70
2018-12-14T14:00:22.247Z,13.03
2018-12-14T14:02:56.087Z,14.83
2018-12-14T14:05:30.106Z,13.87
2018-12-14T14:08:04.462Z,15.83
2018-12-14T14:10:38.318Z,13.90
2018-12-14T14:13:12.583Z,16.07
2018-12-14T14:15:50.664Z,14.03
2018-12-14T14:18:23.299Z,14.23
2018-12-14T14:20:57.906Z,14.63
2018-12-14T14:23:31.765Z,13.73
2018-12-14T14:26:05.793Z,12.47
2018-12-14T14:28:40.148Z,18.37
2018-12-14T14:31:14.099Z,15.50
2018-12-14T14:33:48.206Z,13.53
2018-12-14T14:36:22.192Z,13.97
2018-12-14T14:38:55.911Z,14.20
2018-12-14T14:41:29.927Z,13.00
2018-12-14T14:44:04.446Z,12.53
2018-12-14T14:46:39.556Z,13.07
2018-12-14T14:49:13.626Z,13.87
2018-12-14T14:51:47.986Z,11.33
2018-12-14T14:54:23.922Z,11.87
2018-12-14T14:56:58.052Z,12.83
2018-12-14T14:59:32.184Z,11.23
2018-12-14T15:02:06.098Z,12.97
2018-12-14T15:04:41.455Z,11.67
2018-12-14T15:07:16.373Z,9.90
2018-12-14T15:09:51.904Z,10.05
2018-12-14T15:12:26.419Z,11.93
2018-12-14T15:15:06.377Z,11.93
2018-12-14T15:17:36.655Z,15.20
2018-12-14T15:20:10.627Z,13.23
2018-12-14T15:22:44.850Z,16.70
2018-12-14T15:25:18.656Z,11.90
2018-12-14T15:27:55.747Z,12.97
2018-12-14T15:30:30.631Z,12.43
2018-12-14T15:33:04.598Z,12.10
2018-12-14T15:35:39.930Z,10.27
2018-12-14T15:38:15.340Z,12.00
2018-12-14T15:40:50.648Z,11.83
2018-12-14T15:43:28.981Z,10.37
2018-12-14T15:46:07.316Z,10.80
2018-12-14T15:48:42.491Z,14.23
2018-12-14T15:51:18.444Z,11.37
2018-12-14T15:53:55.397Z,10.57
2018-12-14T15:56:34.457Z,14.93
2018-12-14T15:59:08.446Z,13.53
2018-12-14T16:02:01.936Z,15.63
2018-12-14T16:04:35.891Z,16.90
2018-12-14T16:07:13.353Z,13.60
2018-12-14T16:09:49.059Z,14.50
2018-12-14T16:12:23.616Z,12.50
2018-12-14T16:14:57.378Z,11.47
2018-12-14T16:17:31.558Z,12.97
2018-12-14T16:20:05.521Z,11.97
2018-12-14T16:22:39.474Z,13.90
2018-12-14T16:25:13.607Z,11.43
2018-12-14T16:27:47.749Z,11.07
2018-12-14T16:30:22.054Z,13.93
2018-12-14T16:32:55.979Z,13.77
2018-12-14T16:35:30.292Z,15.57
2018-12-14T16:38:04.259Z,13.77
2018-12-14T16:40:42.646Z,15.13
2018-12-14T16:43:16.615Z,13.50
2018-12-14T16:45:50.616Z,13.07
2018-12-14T16:48:56.651Z,15.97
2018-12-14T16:51:38.978Z,16.60
2018-12-14T16:54:15.925Z,14.80
2018-12-14T16:56:51.880Z,15.20
2018-12-14T16:59:26.591Z,13.70
2018-12-14T17:02:32.889Z,15.07
2018-12-14T17:05:10.705Z,15.33
2018-12-14T17:07:44.679Z,18.13
2018-12-14T17:10:19.321Z,13.67
2018-12-14T17:12:55.200Z,16.10
2018-12-14T17:15:33.160Z,12.47
2018-12-14T17:18:05.352Z,13.03
2018-12-14T17:20:40.673Z,13.32
2018-12-14T17:23:14.786Z,14.90
2018-12-14T17:25:49.034Z,15.03
2018-12-14T17:28:23.056Z,24.63
2018-12-14T17:30:57.877Z,14.57
2018-12-14T17:33:36.056Z,16.87
2018-12-14T17:36:10.172Z,15.03
2018-12-14T17:38:44.199Z,14.33
2018-12-14T17:41:18.779Z,15.87
2018-12-14T17:43:52.928Z,16.43
2018-12-14T17:46:27.278Z,15.43
2018-12-14T17:49:01.264Z,15.57
2018-12-14T17:51:36.302Z,18.43
2018-12-14T17:54:11.114Z,15.47
2018-12-14T17:56:46.507Z,14.80
2018-12-14T17:59:22.062Z,14.10
2018-12-14T18:01:56.194Z,15.30
2018-12-14T18:04:30.665Z,14.63
2018-12-14T18:07:04.843Z,15.20
2018-12-14T18:09:38.953Z,15.07
2018-12-14T18:12:13.016Z,18.63
2018-12-14T18:14:49.151Z,14.70
2018-12-14T18:17:22.582Z,14.70
2018-12-14T18:19:56.914Z,15.93
2018-12-14T18:22:31.666Z,15.23
2018-12-14T18:25:06.038Z,13.90
2018-12-14T18:27:40.818Z,15.03
2018-12-14T18:30:15.086Z,13.90
2018-12-14T18:32:50.639Z,14.13
2018-12-14T18:35:24.657Z,12.60
2018-12-14T18:37:58.579Z,14.17
2018-12-14T18:40:32.865Z,12.00
2018-12-14T18:43:07.636Z,12.00
2018-12-14T18:45:41.397Z,12.57
2018-12-14T18:48:15.848Z,15.37
2018-12-14T18:50:49.488Z,13.00
2018-12-14T18:53:23.689Z,13.13
2018-12-14T18:55:57.835Z,11.60
2018-12-14T18:58:31.635Z,11.10
2018-12-14T19:01:07.079Z,11.63
2018-12-14T19:03:41.168Z,12.30
2018-12-14T19:06:15.321Z,9.63
2018-12-14T19:08:49.339Z,12.87
2018-12-14T19:11:23.681Z,11.70
2018-12-14T19:13:58.190Z,10.30
2018-12-14T19:16:32.499Z,9.90
2018-12-14T19:19:06.587Z,13.37
2018-12-14T19:21:40.876Z,9.73
2018-12-14T19:24:15.222Z,8.33
2018-12-14T19:26:50.487Z,9.77
2018-12-14T19:29:25.197Z,9.83
2018-12-14T19:31:59.706Z,8.63
2018-12-14T19:34:33.654Z,8.37
2018-12-14T19:37:07.766Z,8.50
2018-12-14T19:39:41.791Z,12.73
2018-12-14T19:42:15.870Z,7.90
2018-12-14T19:45:05.594Z,9.30
2018-12-14T19:47:39.938Z,8.90
2018-12-14T19:50:14.206Z,9.17
2018-12-14T19:52:48.546Z,10.07
2018-12-14T19:55:22.647Z,10.90
2018-12-14T19:57:58.018Z,11.05
2018-12-14T20:00:31.986Z,12.80
2018-12-14T20:03:08.769Z,9.33
2018-12-14T20:05:43.297Z,11.40
2018-12-14T20:08:17.956Z,9.43
2018-12-14T20:10:52.238Z,9.73
2018-12-14T20:13:26.248Z,8.47
2018-12-14T20:16:00.330Z,9.73
2018-12-14T20:18:50.070Z,9.30
2018-12-14T20:21:23.954Z,10.57
2018-12-14T20:23:58.208Z,9.47
2018-12-14T20:26:32.333Z,10.13
2018-12-14T20:29:06.447Z,10.00
2018-12-14T20:31:41.569Z,10.53
2018-12-14T20:34:15.719Z,10.33
2018-12-14T20:36:50.046Z,12.70
2018-12-14T20:39:25.724Z,9.93
2018-12-14T20:41:59.681Z,11.03
2018-12-14T20:44:34.670Z,12.13
2018-12-14T20:47:10.236Z,11.47
2018-12-14T20:49:44.809Z,9.50
2018-12-14T20:52:18.881Z,10.73
2018-12-14T20:54:53.186Z,9.70
2018-12-14T20:57:28.856Z,11.57
2018-12-14T21:00:03.897Z,10.23
2018-12-14T21:02:37.977Z,10.53
2018-12-14T21:05:13.880Z,10.63
2018-12-14T21:07:48.106Z,10.70
2018-12-14T21:10:22.270Z,11.13
2018-12-14T21:12:56.595Z,15.97
2018-12-14T21:15:30.979Z,10.30
2018-12-14T21:18:05.120Z,9.80
2018-12-14T21:20:39.473Z,9.00
2018-12-14T21:23:13.920Z,13.47
2018-12-14T21:25:48.230Z,10.10
2018-12-14T21:28:22.079Z,10.90
2018-12-14T21:30:57.329Z,11.50
2018-12-14T21:33:31.301Z,11.03
2018-12-14T21:36:05.446Z,10.63
2018-12-14T21:38:48.104Z,11.43
2018-12-14T21:41:22.249Z,14.13
2018-12-14T21:43:56.302Z,11.57
2018-12-14T21:46:32.690Z,11.07
2018-12-14T21:49:07.221Z,12.03
2018-12-14T21:51:41.099Z,12.07
2018-12-14T21:54:15.401Z,12.90
2018-12-14T21:57:23.139Z,10.93
2018-12-14T21:59:57.684Z,11.00
2018-12-14T22:02:31.811Z,11.20
2018-12-14T22:05:05.560Z,10.63
2018-12-14T22:08:04.189Z,12.77
2018-12-14T22:10:39.610Z,11.60
2018-12-14T22:13:14.117Z,12.37
2018-12-14T22:15:48.060Z,11.90
2018-12-14T22:18:22.242Z,13.23
2018-12-14T22:20:56.831Z,13.77
2018-12-14T22:23:33.256Z,12.47
2018-12-14T22:26:07.372Z,15.10
2018-12-14T22:28:41.675Z,11.77
2018-12-14T22:31:16.001Z,12.07
2018-12-14T22:33:49.831Z,13.37
2018-12-14T22:36:23.830Z,13.47
2018-12-14T22:38:58.070Z,12.07
2018-12-14T22:41:31.933Z,11.87
2018-12-14T22:44:05.875Z,12.73
2018-12-14T22:46:45.472Z,10.30
2018-12-14T22:49:16.032Z,11.80
2018-12-14T22:51:49.906Z,12.40
2018-12-14T22:54:24.260Z,13.60
2018-12-14T22:56:58.457Z,11.13
2018-12-14T22:59:32.812Z,10.57
2018-12-14T23:02:07.231Z,12.80
2018-12-14T23:04:42.125Z,12.05
2018-12-14T23:07:48.186Z,11.20
2018-12-14T23:10:22.355Z,11.30
2018-12-14T23:12:58.386Z,13.10
2018-12-14T23:15:32.441Z,12.80
2018-12-14T23:18:06.745Z,10.30
2018-12-14T23:20:41.237Z,12.13
2018-12-14T23:23:15.951Z,13.70
2018-12-14T23:25:50.570Z,14.83
2018-12-14T23:28:24.701Z,12.23
2018-12-14T23:30:58.718Z,11.13
2018-12-14T23:33:33.109Z,10.70
2018-12-14T23:36:07.141Z,10.70
2018-12-14T23:39:13.384Z,9.77
2018-12-14T23:42:18.471Z,11.70
2018-12-14T23:44:53.432Z,10.77
2018-12-14T23:47:27.427Z,13.23
2018-12-14T23:50:01.423Z,12.60
2018-12-14T23:52:36.549Z,13.30
2018-12-14T23:55:11.899Z,19.57
2018-12-14T23:57:46.919Z,14.77
